Time;durP1;ratioP1;P1;durP2;ratioP2;P2;SDS_P1;SDS_P2;PMS_P1;PMS_P2;Temp;Humidity;BMP_temperature;BMP_pressure;BME280_temperature;BME280_humidity;BME280_pressure;Samples;Min_cycle;Max_cycle;Signal;HPM_P1;HPM_P2
2022/04/23 00:00:14;;;;;;;25.30;16.57;;;11.70;1.00;;;;;;5070514;28;20786;-52
2022/04/23 00:02:42;;;;;;;27.20;18.47;;;11.70;1.00;;;;;;5088728;28;20386;-52
2022/04/23 00:05:10;;;;;;;26.00;17.83;;;11.60;1.00;;;;;;5090852;28;20859;-52
2022/04/23 00:07:35;;;;;;;26.55;17.25;;;11.50;1.00;;;;;;5070147;28;20399;-52
2022/04/23 00:10:01;;;;;;;27.67;16.67;;;11.40;1.00;;;;;;5070425;28;20379;-52
2022/04/23 00:12:28;;;;;;;27.07;16.27;;;11.30;1.00;;;;;;5070186;28;20569;-51
2022/04/23 00:14:54;;;;;;;28.90;17.88;;;11.30;1.00;;;;;;5090581;28;20411;-53
2022/04/23 00:17:19;;;;;;;26.60;17.33;;;11.20;1.00;;;;;;5089377;28;20859;-52
2022/04/23 00:19:47;;;;;;;24.92;16.83;;;11.20;1.00;;;;;;5071626;28;20442;-52
2022/04/23 00:22:15;;;;;;;26.95;17.42;;;11.10;1.00;;;;;;5073917;28;20416;-52
2022/04/23 00:24:41;;;;;;;27.90;19.03;;;11.20;1.00;;;;;;5065611;28;20397;-52
2022/04/23 00:27:07;;;;;;;29.67;19.35;;;11.10;67.40;;;;;;5090461;28;20378;-52
2022/04/23 00:29:34;;;;;;;31.33;18.60;;;11.10;99.90;;;;;;5079944;28;20443;-52
2022/04/23 00:32:00;;;;;;;27.42;18.77;;;11.00;99.90;;;;;;5070261;28;20391;-52
2022/04/23 00:34:26;;;;;;;26.87;18.17;;;10.90;99.90;;;;;;5052669;28;20396;-52
2022/04/23 00:36:51;;;;;;;27.60;18.85;;;10.90;99.90;;;;;;5070367;28;20411;-52
2022/04/23 00:39:17;;;;;;;28.13;17.63;;;10.90;99.90;;;;;;5071236;28;20880;-52
2022/04/23 00:41:46;;;;;;;25.95;18.05;;;10.90;99.90;;;;;;5069280;28;20957;-52
2022/04/23 00:44:13;;;;;;;27.80;18.20;;;11.00;99.90;;;;;;5062077;28;20432;-52
2022/04/23 00:46:39;;;;;;;26.67;18.80;;;10.90;99.90;;;;;;5089662;28;20456;-52
2022/04/23 00:49:06;;;;;;;28.58;17.30;;;10.80;1.00;;;;;;5080884;28;20383;-53
2022/04/23 00:51:35;;;;;;;25.98;17.73;;;10.70;1.00;;;;;;5068900;28;20407;-52
2022/04/23 00:54:04;;;;;;;24.48;16.77;;;10.80;1.00;;;;;;5070871;28;20419;-52
2022/04/23 00:56:34;;;;;;;26.52;16.88;;;10.70;99.90;;;;;;5068833;28;20415;-53
2022/04/23 00:59:01;;;;;;;24.80;16.48;;;10.60;1.00;;;;;;5070489;28;20387;-53
2022/04/23 01:01:26;;;;;;;25.13;16.00;;;10.50;99.90;;;;;;5068987;28;20376;-53
2022/04/23 01:03:53;;;;;;;25.77;16.50;;;10.60;99.90;;;;;;5087544;28;20894;-53
2022/04/23 01:06:20;;;;;;;24.95;16.08;;;10.50;1.00;;;;;;5090240;28;20370;-53
2022/04/23 01:08:47;;;;;;;22.73;14.98;;;10.50;1.00;;;;;;5071923;28;20487;-53
2022/04/23 01:11:13;;;;;;;25.23;15.63;;;10.40;99.90;;;;;;5069742;28;20434;-54
2022/04/23 01:13:39;;;;;;;23.30;14.90;;;10.40;99.90;;;;;;5069871;28;20388;-53
2022/04/23 01:16:07;;;;;;;22.98;15.20;;;10.40;1.00;;;;;;5069952;28;20416;-53
2022/04/23 01:18:34;;;;;;;23.02;15.00;;;10.50;1.00;;;;;;5080119;28;20405;-53
2022/04/23 01:21:05;;;;;;;24.73;15.68;;;10.40;1.00;;;;;;5069058;28;20392;-53
2022/04/23 01:23:31;;;;;;;25.52;15.32;;;10.40;1.00;;;;;;5049233;28;20827;-54
2022/04/23 01:26:00;;;;;;;23.90;14.70;;;10.40;1.00;;;;;;5064064;28;20497;-53
2022/04/23 01:28:27;;;;;;;22.95;14.70;;;10.40;1.00;;;;;;5068667;28;20415;-53
2022/04/23 01:30:54;;;;;;;24.15;14.73;;;10.40;99.90;;;;;;5055608;28;20400;-53
2022/04/23 01:33:21;;;;;;;24.95;14.98;;;10.40;1.00;;;;;;5049685;28;20431;-53
2022/04/23 01:35:47;;;;;;;21.33;14.02;;;10.30;99.90;;;;;;5059826;28;20495;-53
2022/04/23 01:38:13;;;;;;;21.20;13.90;;;10.20;99.90;;;;;;5055850;28;20772;-53
2022/04/23 01:40:40;;;;;;;23.58;14.38;;;10.30;99.90;;;;;;5060809;28;20385;-53
2022/04/23 01:43:06;;;;;;;21.20;13.55;;;10.40;1.00;;;;;;5060924;28;20484;-52
2022/04/23 01:45:31;;;;;;;21.65;13.60;;;10.40;1.00;;;;;;5072959;28;20396;-53
2022/04/23 01:47:57;;;;;;;21.03;13.07;;;10.40;1.00;;;;;;5071566;28;20388;-53
2022/04/23 01:50:23;;;;;;;21.92;14.40;;;10.50;99.90;;;;;;5072998;28;20505;-53
2022/04/23 01:52:49;;;;;;;22.85;13.80;;;10.40;1.00;;;;;;5073099;28;20476;-53
2022/04/23 01:55:15;;;;;;;23.43;13.27;;;10.40;1.00;;;;;;5072867;28;20391;-53
2022/04/23 01:57:40;;;;;;;23.58;14.23;;;10.30;1.00;;;;;;5072476;28;20388;-53
2022/04/23 02:00:13;;;;;;;23.17;15.13;;;10.30;99.90;;;;;;5071438;28;20398;-53
2022/04/23 02:02:42;;;;;;;22.58;13.70;;;10.30;99.90;;;;;;5071974;28;20869;-53
2022/04/23 02:05:09;;;;;;;21.42;14.35;;;10.10;1.00;;;;;;5072306;28;20391;-53
2022/04/23 02:07:39;;;;;;;22.35;14.25;;;10.00;1.00;;;;;;5053897;28;20410;-52
2022/04/23 02:10:07;;;;;;;22.80;14.13;;;9.90;99.90;;;;;;5052964;28;20472;-53
2022/04/23 02:12:33;;;;;;;19.45;13.05;;;9.90;1.00;;;;;;5052047;28;20386;-53
2022/04/23 02:15:00;;;;;;;22.50;13.43;;;9.90;1.00;;;;;;5072632;28;20411;-53
2022/04/23 02:17:37;;;;;;;21.67;13.40;;;9.90;1.00;;;;;;5054700;28;20414;-53
2022/04/23 02:20:23;;;;;;;21.87;13.77;;;9.90;1.00;;;;;;5071487;28;20422;-53
2022/04/23 02:22:49;;;;;;;20.33;13.23;;;9.90;1.00;;;;;;5069720;28;20404;-53
2022/04/23 02:25:16;;;;;;;20.38;12.70;;;9.80;1.00;;;;;;5073095;28;20379;-53
2022/04/23 02:27:46;;;;;;;22.45;13.63;;;9.70;55.70;;;;;;5071354;28;20399;-53
2022/04/23 02:30:14;;;;;;;20.80;13.20;;;9.70;99.90;;;;;;5074325;28;20382;-53
2022/04/23 02:32:41;;;;;;;21.00;13.10;;;9.70;99.90;;;;;;5091172;28;20382;-53
2022/04/23 02:35:07;;;;;;;19.03;13.03;;;9.80;99.90;;;;;;5074181;28;20383;-53
2022/04/23 02:37:36;;;;;;;21.58;13.50;;;9.80;99.90;;;;;;5071328;28;20495;-53
2022/04/23 02:40:07;;;;;;;21.57;12.97;;;9.80;99.90;;;;;;5072669;28;20511;-53
2022/04/23 02:42:33;;;;;;;22.10;13.00;;;9.70;99.90;;;;;;5070717;28;20889;-52
2022/04/23 02:45:01;;;;;;;21.40;13.65;;;9.70;99.90;;;;;;5073544;28;21029;-53
2022/04/23 02:47:29;;;;;;;22.38;14.52;;;9.80;99.90;;;;;;5070926;28;20873;-53
2022/04/23 02:49:55;;;;;;;22.23;14.25;;;9.80;99.90;;;;;;5073257;28;20529;-53
2022/04/23 02:52:21;;;;;;;20.77;13.63;;;9.80;99.90;;;;;;5072391;28;20384;-53
2022/04/23 02:54:46;;;;;;;22.73;13.60;;;9.80;99.90;;;;;;5072473;28;20574;-53
2022/04/23 02:57:12;;;;;;;22.17;13.57;;;9.70;99.90;;;;;;5071720;28;20415;-52
2022/04/23 02:59:39;;;;;;;20.58;13.30;;;9.70;99.90;;;;;;5072703;28;20392;-52
2022/04/23 03:02:05;;;;;;;23.05;14.07;;;9.70;99.90;;;;;;5080045;28;20466;-53
2022/04/23 03:04:31;;;;;;;23.40;13.80;;;9.60;99.90;;;;;;5091710;28;20439;-52
2022/04/23 03:06:57;;;;;;;22.08;13.90;;;9.60;1.00;;;;;;5084712;28;20391;-53
2022/04/23 03:09:23;;;;;;;22.57;14.73;;;9.60;1.00;;;;;;5071710;28;20391;-53
2022/04/23 03:11:48;;;;;;;22.00;13.55;;;9.50;1.00;;;;;;5072096;28;20398;-52
2022/04/23 03:14:15;;;;;;;20.50;12.57;;;9.50;1.00;;;;;;5071937;28;20721;-53
2022/04/23 03:16:41;;;;;;;24.25;13.82;;;9.50;1.00;;;;;;5075905;28;20410;-53
2022/04/23 03:19:07;;;;;;;20.40;12.93;;;9.50;1.00;;;;;;5091831;28;20508;-53
2022/04/23 03:21:33;;;;;;;21.20;13.35;;;9.40;1.00;;;;;;5080966;28;20429;-52
2022/04/23 03:23:58;;;;;;;21.15;13.30;;;9.40;1.00;;;;;;5051282;28;20389;-52
2022/04/23 03:26:24;;;;;;;22.27;13.67;;;9.50;1.00;;;;;;5053650;28;20528;-53
2022/04/23 03:28:50;;;;;;;22.65;13.30;;;9.50;1.00;;;;;;5053079;28;20422;-52
2022/04/23 03:31:16;;;;;;;22.30;13.80;;;9.50;1.00;;;;;;5070180;28;20856;-52
2022/04/23 03:33:42;;;;;;;22.73;13.10;;;9.50;1.00;;;;;;5050512;28;20377;-52
2022/04/23 03:36:07;;;;;;;21.13;13.77;;;9.50;1.00;;;;;;5050600;28;20498;-52
2022/04/23 03:38:33;;;;;;;21.80;13.93;;;9.40;1.00;;;;;;5051185;28;20400;-52
2022/04/23 03:40:58;;;;;;;22.55;13.50;;;9.40;1.00;;;;;;5051167;28;20467;-52
2022/04/23 03:43:25;;;;;;;21.07;13.20;;;9.40;1.00;;;;;;5070164;28;20866;-53
2022/04/23 03:45:52;;;;;;;19.83;13.23;;;9.40;1.00;;;;;;5071101;28;20426;-52
2022/04/23 03:48:17;;;;;;;22.60;13.77;;;9.30;99.90;;;;;;5052729;28;20390;-52
2022/04/23 03:50:43;;;;;;;21.67;13.10;;;9.20;99.90;;;;;;5050403;28;20936;-52
2022/04/23 03:53:09;;;;;;;20.10;12.93;;;9.10;1.00;;;;;;5051618;28;20413;-52
2022/04/23 03:55:35;;;;;;;20.63;12.90;;;9.10;1.00;;;;;;5050415;28;20876;-52
2022/04/23 03:58:01;;;;;;;21.90;14.73;;;9.10;1.00;;;;;;5051123;28;20891;-52
2022/04/23 04:00:28;;;;;;;20.02;13.75;;;9.00;1.00;;;;;;5050627;28;20412;-54
2022/04/23 04:02:55;;;;;;;22.45;13.98;;;8.90;1.00;;;;;;5065579;28;20396;-53
2022/04/23 04:05:22;;;;;;;23.83;14.10;;;9.00;1.00;;;;;;5070991;28;20376;-53
2022/04/23 04:07:48;;;;;;;22.48;14.20;;;9.00;1.00;;;;;;5068590;28;20639;-53
2022/04/23 04:10:17;;;;;;;21.95;13.55;;;8.90;1.00;;;;;;5071175;28;20883;-55
2022/04/23 04:12:43;;;;;;;21.65;12.70;;;9.00;1.00;;;;;;5056675;28;20394;-52
2022/04/23 04:15:11;;;;;;;20.47;13.00;;;9.00;1.00;;;;;;5032892;28;20435;-52
2022/04/23 04:17:38;;;;;;;22.20;13.85;;;9.00;1.00;;;;;;5050992;28;20413;-53
2022/04/23 04:20:08;;;;;;;20.77;13.15;;;9.00;1.00;;;;;;5050704;28;20491;-53
2022/04/23 04:22:35;;;;;;;20.75;13.13;;;9.10;1.00;;;;;;5076136;28;20406;-54
2022/04/23 04:25:02;;;;;;;22.77;13.32;;;9.10;1.00;;;;;;5090724;28;20378;-53
2022/04/23 04:27:28;;;;;;;21.30;13.63;;;9.10;1.00;;;;;;5078827;28;20396;-52
2022/04/23 04:29:54;;;;;;;21.02;13.30;;;9.10;1.00;;;;;;5069894;28;20499;-53
2022/04/23 04:32:20;;;;;;;23.20;13.70;;;9.00;1.00;;;;;;5071480;28;20520;-53
2022/04/23 04:34:46;;;;;;;21.93;13.63;;;8.90;1.00;;;;;;5069489;28;20419;-53
2022/04/23 04:37:12;;;;;;;22.13;14.05;;;9.10;1.00;;;;;;5071171;28;20443;-53
2022/04/23 04:39:40;;;;;;;19.10;12.60;;;9.10;1.00;;;;;;5069368;28;20371;-53
2022/04/23 04:42:07;;;;;;;21.13;13.43;;;9.20;1.00;;;;;;5071102;28;20460;-53
2022/04/23 04:44:34;;;;;;;21.02;13.60;;;9.20;1.00;;;;;;5068689;28;20403;-53
2022/04/23 04:46:59;;;;;;;20.67;13.57;;;9.30;1.00;;;;;;5053270;28;20726;-53
2022/04/23 04:49:25;;;;;;;22.58;13.60;;;9.30;1.00;;;;;;5070239;28;20383;-53
2022/04/23 04:51:52;;;;;;;22.15;13.45;;;9.30;1.00;;;;;;5070404;28;20392;-53
2022/04/23 04:54:18;;;;;;;21.43;12.70;;;9.40;1.00;;;;;;5069467;28;20376;-53
2022/04/23 04:56:48;;;;;;;21.20;12.50;;;9.30;1.00;;;;;;5087783;28;20413;-52
2022/04/23 04:59:14;;;;;;;23.20;12.80;;;9.30;1.00;;;;;;5089425;28;20390;-53
2022/04/23 05:01:40;;;;;;;22.33;13.27;;;9.40;1.00;;;;;;5086100;28;20390;-52
2022/04/23 05:04:06;;;;;;;21.25;12.85;;;9.50;1.00;;;;;;5089996;28;20962;-53
2022/04/23 05:06:32;;;;;;;20.50;12.77;;;9.60;1.00;;;;;;5088590;28;20875;-52
2022/04/23 05:08:58;;;;;;;20.37;12.40;;;9.60;1.00;;;;;;5089957;28;20453;-53
2022/04/23 05:11:24;;;;;;;20.75;12.18;;;9.50;1.00;;;;;;5087876;28;20866;-53
2022/04/23 05:13:50;;;;;;;20.03;12.33;;;9.50;1.00;;;;;;5088536;28;21243;-53
2022/04/23 05:16:16;;;;;;;20.00;12.48;;;9.60;1.00;;;;;;5087240;28;20418;-53
2022/04/23 05:18:42;;;;;;;20.00;12.30;;;9.60;1.00;;;;;;5088021;28;20388;-52
2022/04/23 05:21:08;;;;;;;20.48;11.70;;;9.60;1.00;;;;;;5083657;28;20438;-53
2022/04/23 05:23:34;;;;;;;21.77;12.40;;;9.70;1.00;;;;;;5081491;28;20393;-52
2022/04/23 05:26:00;;;;;;;21.00;13.40;;;9.70;1.00;;;;;;5089844;28;20388;-53
2022/04/23 05:28:25;;;;;;;20.58;12.23;;;9.80;1.00;;;;;;5089197;28;20386;-53
2022/04/23 05:30:51;;;;;;;19.67;12.05;;;9.90;1.00;;;;;;5088781;28;20401;-52
2022/04/23 05:33:17;;;;;;;19.27;12.17;;;9.80;30.00;;;;;;5083554;28;20431;-53
2022/04/23 05:35:43;;;;;;;18.20;11.05;;;9.80;1.00;;;;;;5068553;28;20392;-52
2022/04/23 05:38:08;;;;;;;18.90;12.15;;;9.80;1.00;;;;;;5073378;28;20389;-53
2022/04/23 05:40:34;;;;;;;18.00;12.00;;;9.70;1.00;;;;;;5088204;28;20374;-52
2022/04/23 05:43:00;;;;;;;18.23;11.60;;;9.70;11.50;;;;;;5078635;28;20423;-53
2022/04/23 05:45:27;;;;;;;18.42;11.75;;;9.80;1.00;;;;;;5070418;28;20420;-52
2022/04/23 05:47:53;;;;;;;17.93;10.53;;;10.10;1.00;;;;;;5085090;28;20763;-53
2022/04/23 05:50:19;;;;;;;18.75;11.50;;;10.00;99.90;;;;;;5068929;28;20399;-53
2022/04/23 05:52:45;;;;;;;18.63;11.40;;;10.00;99.90;;;;;;5070485;28;20388;-54
2022/04/23 05:55:11;;;;;;;17.60;10.50;;;10.10;99.90;;;;;;5066464;28;20410;-54
2022/04/23 05:57:37;;;;;;;18.73;11.43;;;10.20;99.90;;;;;;5071774;28;20434;-53
2022/04/23 06:00:05;;;;;;;18.50;11.20;;;10.40;99.90;;;;;;5051393;28;20888;-54
2022/04/23 06:02:31;;;;;;;17.97;10.73;;;10.50;99.90;;;;;;5069476;28;20422;-53
2022/04/23 06:04:58;;;;;;;18.95;11.30;;;10.50;99.90;;;;;;5071576;28;21844;-53
2022/04/23 06:07:23;;;;;;;17.95;11.23;;;10.50;99.90;;;;;;5085196;28;20413;-54
2022/04/23 06:09:49;;;;;;;16.73;10.27;;;10.70;99.90;;;;;;5051926;28;20398;-54
2022/04/23 06:12:15;;;;;;;18.55;10.50;;;10.80;99.90;;;;;;5085269;28;20801;-54
2022/04/23 06:14:41;;;;;;;17.80;11.30;;;10.80;99.90;;;;;;5081225;28;20425;-54
2022/04/23 06:17:11;;;;;;;16.30;9.43;;;11.10;99.90;;;;;;5083486;28;20438;-54
2022/04/23 06:19:38;;;;;;;17.48;10.90;;;11.00;99.90;;;;;;5074221;28;20405;-53
2022/04/23 06:22:04;;;;;;;18.00;10.60;;;11.00;99.90;;;;;;5085547;28;20411;-54
2022/04/23 06:24:30;;;;;;;19.35;10.75;;;11.20;99.90;;;;;;5072801;28;20505;-54
2022/04/23 06:26:56;;;;;;;17.77;10.10;;;11.40;99.90;;;;;;5073744;28;20482;-54
2022/04/23 06:29:21;;;;;;;16.92;10.07;;;11.40;99.90;;;;;;5088012;28;20390;-53
2022/04/23 06:31:47;;;;;;;21.80;10.80;;;11.30;99.90;;;;;;5075536;28;20903;-54
2022/04/23 06:34:13;;;;;;;13.88;8.30;;;11.30;99.90;;;;;;5076875;28;20424;-54
2022/04/23 06:36:40;;;;;;;15.27;9.45;;;11.30;99.90;;;;;;5075360;28;20411;-53
2022/04/23 06:39:06;;;;;;;15.25;8.48;;;11.50;99.90;;;;;;5078649;28;20396;-54
2022/04/23 06:41:32;;;;;;;14.65;8.68;;;11.40;99.90;;;;;;5071882;28;20482;-53
2022/04/23 06:43:58;;;;;;;13.98;8.50;;;11.60;99.90;;;;;;5078417;28;20484;-51
2022/04/23 06:46:24;;;;;;;14.03;7.90;;;11.90;99.90;;;;;;5079498;28;21097;-51
2022/04/23 06:48:49;;;;;;;13.70;8.35;;;11.90;99.90;;;;;;5090879;28;20393;-51
2022/04/23 06:51:16;;;;;;;14.07;8.20;;;11.90;99.90;;;;;;5083243;28;20422;-51
2022/04/23 06:53:41;;;;;;;13.55;8.60;;;11.90;99.90;;;;;;5086214;28;20485;-52
2022/04/23 06:56:07;;;;;;;13.00;7.60;;;11.90;99.90;;;;;;5081657;28;20450;-51
2022/04/23 06:58:33;;;;;;;13.48;8.02;;;11.70;99.90;;;;;;5071005;28;20465;-53
2022/04/23 07:00:59;;;;;;;12.75;7.90;;;11.70;99.90;;;;;;5091277;28;20479;-52
2022/04/23 07:03:25;;;;;;;11.90;7.27;;;11.90;99.90;;;;;;5076830;28;20920;-51
2022/04/23 07:05:51;;;;;;;12.68;7.43;;;12.00;99.90;;;;;;5086507;28;20489;-51
2022/04/23 07:08:17;;;;;;;13.30;7.38;;;12.20;99.90;;;;;;5059300;28;20970;-51
2022/04/23 07:10:46;;;;;;;12.20;7.28;;;12.40;99.90;;;;;;5079047;28;20406;-51
2022/04/23 07:13:13;;;;;;;13.90;8.18;;;12.40;99.90;;;;;;5053611;28;20460;-51
2022/04/23 07:15:39;;;;;;;14.48;8.45;;;12.30;99.90;;;;;;5070442;28;20407;-51
2022/04/23 07:18:06;;;;;;;13.00;7.30;;;12.20;99.90;;;;;;5078031;28;20434;-52
2022/04/23 07:20:32;;;;;;;14.40;7.83;;;12.10;99.90;;;;;;5078049;28;20422;-51
2022/04/23 07:25:42;;;;;;;13.82;7.65;;;12.70;99.90;;;;;;5070136;28;20451;-50
2022/04/23 07:28:08;;;;;;;12.10;7.20;;;12.50;99.90;;;;;;5070749;28;20471;-51
2022/04/23 07:30:35;;;;;;;14.52;8.80;;;12.40;99.90;;;;;;5078744;28;20386;-51
2022/04/23 07:33:01;;;;;;;12.40;7.47;;;12.70;99.90;;;;;;5089155;28;20394;-51
2022/04/23 07:38:20;;;;;;;11.50;6.60;;;12.90;99.90;;;;;;5079964;28;20427;-51
2022/04/23 07:40:51;;;;;;;11.48;7.20;;;12.80;99.90;;;;;;5070172;28;20402;-51
2022/04/23 07:43:17;;;;;;;12.30;6.68;;;12.70;99.90;;;;;;5080587;28;20497;-50
2022/04/23 07:45:44;;;;;;;10.10;5.70;;;12.70;99.90;;;;;;5091434;28;20419;-51
2022/04/23 07:48:12;;;;;;;12.75;5.97;;;12.90;99.90;;;;;;5079919;28;20445;-51
2022/04/23 07:50:40;;;;;;;11.93;6.28;;;12.90;99.90;;;;;;5087273;28;20402;-51
2022/04/23 07:53:07;;;;;;;11.68;5.90;;;12.90;99.90;;;;;;5090364;28;20457;-50
2022/04/23 07:55:36;;;;;;;11.32;5.70;;;13.00;99.90;;;;;;5090694;28;20374;-50
2022/04/23 07:58:04;;;;;;;10.68;6.38;;;13.00;99.90;;;;;;5089830;28;20472;-51
2022/04/23 08:00:31;;;;;;;12.73;6.97;;;13.20;99.90;;;;;;5072903;28;20394;-51
2022/04/23 08:02:57;;;;;;;30.65;16.15;;;13.40;99.90;;;;;;5082152;28;20392;-51
2022/04/23 08:05:23;;;;;;;14.20;7.60;;;13.20;99.90;;;;;;5070396;28;20379;-51
2022/04/23 08:07:49;;;;;;;10.13;5.80;;;13.50;99.90;;;;;;5077297;28;20977;-51
2022/04/23 08:10:15;;;;;;;10.52;5.95;;;13.40;99.90;;;;;;5072641;28;20389;-51
2022/04/23 08:12:41;;;;;;;11.00;6.13;;;13.40;99.90;;;;;;5087845;28;20394;-50
2022/04/23 08:15:07;;;;;;;14.95;6.50;;;13.30;99.90;;;;;;5072136;28;20383;-52
2022/04/23 08:17:33;;;;;;;9.40;5.22;;;13.40;99.90;;;;;;5070455;28;20411;-50
2022/04/23 08:19:59;;;;;;;10.50;6.15;;;13.20;99.90;;;;;;5078637;28;20485;-51
2022/04/23 08:22:25;;;;;;;9.75;5.57;;;13.30;99.90;;;;;;5071760;28;20413;-51
2022/04/23 08:24:51;;;;;;;11.20;6.40;;;13.40;99.90;;;;;;5066395;28;20445;-51
2022/04/23 08:27:17;;;;;;;10.70;5.50;;;13.40;99.90;;;;;;5064246;28;20400;-51
2022/04/23 08:32:27;;;;;;;9.90;5.60;;;13.40;99.90;;;;;;5066476;28;20517;-51
2022/04/23 08:34:53;;;;;;;10.50;5.50;;;13.50;99.90;;;;;;5055641;28;20397;-50
2022/04/23 08:37:22;;;;;;;12.40;6.05;;;13.50;99.90;;;;;;5060924;28;20410;-53
2022/04/23 08:39:47;;;;;;;13.00;5.72;;;13.90;99.90;;;;;;5061472;28;20419;-53
2022/04/23 08:42:16;;;;;;;10.13;6.03;;;14.10;99.90;;;;;;5049724;28;20890;-53
2022/04/23 08:44:45;;;;;;;13.35;5.93;;;14.30;99.90;;;;;;5055263;28;20483;-53
2022/04/23 08:47:12;;;;;;;9.90;5.40;;;14.20;99.90;;;;;;5058089;28;20407;-51
2022/04/23 08:49:41;;;;;;;10.63;6.00;;;14.20;99.90;;;;;;5058088;28;20396;-49
2022/04/23 08:52:16;;;;;;;10.90;5.90;;;14.00;99.90;;;;;;5070447;28;20390;-50
2022/04/23 08:54:43;;;;;;;10.32;5.80;;;14.00;99.90;;;;;;5051671;28;20393;-52
2022/04/23 08:57:09;;;;;;;11.00;5.60;;;13.90;99.90;;;;;;5068743;28;20419;-50
2022/04/23 08:59:35;;;;;;;11.15;5.40;;;14.20;99.90;;;;;;5069152;28;20379;-50
2022/04/23 09:02:01;;;;;;;11.02;6.07;;;14.20;99.90;;;;;;5062741;28;20423;-50
2022/04/23 09:04:28;;;;;;;11.88;6.50;;;14.30;99.90;;;;;;5063371;28;20391;-50
2022/04/23 09:06:54;;;;;;;12.00;6.10;;;14.10;99.90;;;;;;5059152;28;20381;-50
2022/04/23 09:09:25;;;;;;;10.97;5.43;;;14.10;99.90;;;;;;5057703;28;20414;-50
2022/04/23 09:11:56;;;;;;;10.75;5.70;;;14.20;99.90;;;;;;5061584;28;20400;-50
2022/04/23 09:14:27;;;;;;;10.80;5.43;;;14.30;99.90;;;;;;5065557;28;20422;-50
2022/04/23 09:25:39;;;;;;;11.73;6.47;;;14.40;99.90;;;;;;5057887;28;20398;-52
2022/04/23 09:28:22;;;;;;;11.50;6.15;;;14.40;99.90;;;;;;5042495;28;20743;-51
2022/04/23 09:30:49;;;;;;;10.95;5.90;;;14.10;99.90;;;;;;5062761;28;20543;-51
2022/04/23 09:33:16;;;;;;;12.20;5.50;;;14.10;99.90;;;;;;5061049;28;20451;-51
2022/04/23 09:35:55;;;;;;;11.20;5.78;;;14.10;99.90;;;;;;5050624;28;20405;-51
2022/04/23 09:38:21;;;;;;;10.65;5.78;;;13.90;99.90;;;;;;5066702;28;20486;-51
2022/04/23 09:40:51;;;;;;;11.18;5.22;;;13.90;99.90;;;;;;5047150;28;20402;-51
2022/04/23 09:43:28;;;;;;;11.40;5.50;;;13.80;99.90;;;;;;5062739;28;20428;-52
2022/04/23 09:46:05;;;;;;;10.90;5.22;;;13.90;99.90;;;;;;5063058;28;20400;-51
2022/04/23 09:48:32;;;;;;;10.98;5.40;;;14.00;99.90;;;;;;5067980;28;20989;-53
2022/04/23 09:50:59;;;;;;;9.32;5.10;;;14.10;99.90;;;;;;5065716;28;20431;-52
2022/04/23 09:53:27;;;;;;;9.70;4.70;;;13.90;99.90;;;;;;5061559;28;20408;-51
2022/04/23 09:56:05;;;;;;;8.93;4.57;;;14.00;99.90;;;;;;5054717;28;20470;-53
2022/04/23 09:58:33;;;;;;;9.63;5.20;;;14.20;99.90;;;;;;5061850;28;20444;-52
2022/04/23 10:01:00;;;;;;;12.35;5.43;;;14.40;99.90;;;;;;5039793;28;21064;-51
2022/04/23 10:03:33;;;;;;;9.30;5.00;;;14.30;99.90;;;;;;5060800;28;20401;-51
2022/04/23 10:06:01;;;;;;;9.18;4.72;;;14.40;99.90;;;;;;5064338;28;20433;-51
2022/04/23 10:08:34;;;;;;;8.93;4.82;;;14.20;99.90;;;;;;5051755;28;20534;-51
2022/04/23 10:11:20;;;;;;;9.10;4.68;;;14.10;99.90;;;;;;5060599;28;20438;-51
2022/04/23 10:13:52;;;;;;;9.50;5.03;;;14.20;99.90;;;;;;5048088;28;20492;-51
2022/04/23 10:16:19;;;;;;;9.90;5.00;;;14.20;99.90;;;;;;5065804;28;20461;-52
2022/04/23 10:18:46;;;;;;;9.60;5.13;;;14.20;99.90;;;;;;5039820;28;20437;-52
2022/04/23 10:21:18;;;;;;;10.27;5.50;;;14.40;99.90;;;;;;5075339;28;20422;-52
2022/04/23 10:24:05;;;;;;;10.13;5.38;;;14.70;99.90;;;;;;5071312;28;20807;-52
2022/04/23 10:26:59;;;;;;;8.80;5.00;;;14.80;99.90;;;;;;5087778;28;20454;-52
2022/04/23 10:29:27;;;;;;;10.18;5.38;;;14.90;99.90;;;;;;5092158;28;20381;-52
2022/04/23 10:32:11;;;;;;;9.27;5.20;;;15.00;99.90;;;;;;5078136;28;20852;-52
2022/04/23 10:34:38;;;;;;;10.27;5.80;;;15.40;99.90;;;;;;5091711;28;20518;-51
2022/04/23 10:37:21;;;;;;;9.80;5.35;;;15.40;99.90;;;;;;5091693;28;20438;-52
2022/04/23 10:39:52;;;;;;;11.43;5.85;;;15.00;99.90;;;;;;5090481;28;20426;-51
2022/04/23 10:42:23;;;;;;;11.02;5.50;;;14.80;99.90;;;;;;5091817;28;20390;-52
2022/04/23 10:44:50;;;;;;;10.38;5.55;;;15.20;99.90;;;;;;5075163;28;20431;-52
2022/04/23 10:47:36;;;;;;;8.23;4.43;;;15.30;99.90;;;;;;5090717;28;20914;-51
2022/04/23 10:50:22;;;;;;;9.93;5.45;;;15.10;99.90;;;;;;5073548;28;20485;-52
2022/04/23 10:52:50;;;;;;;10.32;5.57;;;15.50;99.90;;;;;;5082991;28;20409;-52
2022/04/23 10:55:16;;;;;;;10.00;5.90;;;15.90;99.90;;;;;;5071620;28;20392;-52
2022/04/23 10:57:52;;;;;;;9.75;5.60;;;16.00;99.90;;;;;;5075224;28;20448;-51
2022/04/23 11:00:20;;;;;;;9.98;5.68;;;16.20;99.90;;;;;;5082071;28;20409;-51
2022/04/23 11:02:53;;;;;;;11.35;5.93;;;15.70;99.90;;;;;;5086635;28;20413;-51
2022/04/23 11:13:52;;;;;;;10.50;5.20;;;15.40;99.90;;;;;;5078876;28;20385;-52
2022/04/23 11:16:19;;;;;;;9.60;5.47;;;15.40;99.90;;;;;;5091770;28;20406;-52
2022/04/23 11:18:48;;;;;;;10.43;6.20;;;15.60;99.90;;;;;;5090744;28;20444;-54
2022/04/23 11:21:28;;;;;;;11.10;5.50;;;15.40;99.90;;;;;;5091209;28;20747;-54
2022/04/23 11:23:56;;;;;;;12.10;6.60;;;15.50;99.90;;;;;;5090897;28;20493;-52
2022/04/23 11:26:50;;;;;;;11.00;6.60;;;15.70;99.90;;;;;;5091489;28;20447;-52
2022/04/23 11:29:17;;;;;;;11.10;6.30;;;15.60;99.90;;;;;;5091703;28;20550;-52
2022/04/23 11:31:58;;;;;;;10.88;5.90;;;15.50;99.90;;;;;;5091015;28;20378;-52
2022/04/23 11:34:24;;;;;;;11.32;6.63;;;15.60;99.90;;;;;;5091650;28;20530;-51
2022/04/23 11:36:51;;;;;;;10.88;5.85;;;15.50;99.90;;;;;;5090864;28;20464;-54
2022/04/23 11:39:17;;;;;;;10.93;6.65;;;15.70;99.90;;;;;;5091508;28;20425;-54
2022/04/23 11:41:49;;;;;;;12.40;7.00;;;15.70;99.90;;;;;;5090366;28;20413;-54
2022/04/23 11:47:11;;;;;;;12.43;6.93;;;15.90;99.90;;;;;;5091412;28;20381;-54
2022/04/23 11:49:37;;;;;;;14.50;8.10;;;15.70;99.90;;;;;;5091115;28;20436;-54
2022/04/23 11:52:11;;;;;;;12.32;6.85;;;15.70;99.90;;;;;;5090599;28;20459;-54
2022/04/23 11:54:43;;;;;;;13.05;6.80;;;15.80;99.90;;;;;;5091717;28;20382;-54
2022/04/23 11:57:14;;;;;;;12.10;7.20;;;15.80;99.90;;;;;;5091156;28;20492;-54
2022/04/23 11:59:44;;;;;;;12.07;7.45;;;15.80;99.90;;;;;;5085709;28;20378;-52
2022/04/23 12:02:24;;;;;;;12.02;7.20;;;16.10;99.90;;;;;;5086550;28;20392;-52
2022/04/23 12:04:54;;;;;;;12.77;7.57;;;16.50;99.90;;;;;;5090145;28;20382;-52
2022/04/23 12:07:23;;;;;;;12.50;7.20;;;16.60;99.90;;;;;;5076037;28;20764;-52
2022/04/23 12:09:53;;;;;;;12.65;7.32;;;16.90;99.90;;;;;;5069524;28;20451;-51
2022/04/23 12:12:26;;;;;;;10.80;7.15;;;16.90;99.90;;;;;;5071609;28;20719;-52
2022/04/23 12:14:53;;;;;;;13.17;7.43;;;16.50;99.90;;;;;;5089669;28;20378;-52
2022/04/23 12:17:30;;;;;;;12.20;7.40;;;16.10;99.90;;;;;;5090822;28;20466;-54
2022/04/23 12:20:08;;;;;;;12.30;7.32;;;15.90;99.90;;;;;;5070749;28;20603;-62
2022/04/23 12:22:33;;;;;;;12.77;7.57;;;15.80;99.90;;;;;;5090868;28;20406;-55
2022/04/23 12:25:16;;;;;;;12.70;7.10;;;15.90;99.90;;;;;;5089615;28;20450;-54
2022/04/23 12:42:10;;;;;;;12.57;7.90;;;16.90;99.90;;;;;;5090262;28;20400;-52
2022/04/23 12:44:42;;;;;;;12.10;7.80;;;17.10;99.90;;;;;;5090105;28;20416;-53
2022/04/23 12:47:10;;;;;;;13.15;7.68;;;17.00;99.90;;;;;;5090370;28;20485;-52
2022/04/23 12:50:06;;;;;;;13.10;7.40;;;16.90;99.90;;;;;;5090163;28;20404;-52
2022/04/23 12:52:44;;;;;;;11.38;7.43;;;16.90;99.90;;;;;;5088789;28;20444;-53
2022/04/23 12:55:19;;;;;;;11.98;7.63;;;16.90;99.90;;;;;;5090196;28;20370;-53
2022/04/23 12:57:45;;;;;;;12.80;7.93;;;16.70;99.90;;;;;;5089615;28;20409;-52
2022/04/23 13:00:16;;;;;;;12.50;8.37;;;16.90;99.90;;;;;;5089952;28;20440;-52
2022/04/23 13:02:43;;;;;;;14.73;8.45;;;16.60;99.90;;;;;;5089509;28;20377;-52
2022/04/23 13:05:10;;;;;;;13.50;8.68;;;16.50;99.90;;;;;;5089948;28;20469;-52
2022/04/23 13:10:21;;;;;;;14.50;9.27;;;16.60;99.90;;;;;;5086736;28;20398;-52
2022/04/23 13:12:47;;;;;;;14.18;9.65;;;16.40;99.90;;;;;;5068581;28;20380;-53
2022/04/23 13:15:12;;;;;;;13.82;8.90;;;16.20;99.90;;;;;;5070752;28;20401;-53
2022/04/23 13:17:38;;;;;;;15.30;9.77;;;16.30;99.90;;;;;;5071973;28;20413;-52
2022/04/23 13:20:08;;;;;;;13.82;9.13;;;16.50;99.90;;;;;;5088973;28;20483;-52
2022/04/23 13:22:35;;;;;;;14.98;9.27;;;16.40;99.90;;;;;;5089306;28;20405;-53
2022/04/23 13:25:02;;;;;;;14.07;9.50;;;16.40;99.90;;;;;;5089381;28;20571;-52
2022/04/23 13:27:29;;;;;;;14.60;9.60;;;16.50;99.90;;;;;;5089312;28;20882;-52